Aviation Digital Data Service (ADDS)

Output produced by METARs form (0340 UTC 05 June 2020)
found at http://www.aviationweather.gov/metar/data/
 
METAR text: HAAB 050300Z 27006KT 9999 SCT024 SCT080 14/12 Q1028
Conditions at: HAAB (ADDIS ABABA/BOLE, ET) observed 0300 UTC 05 June 2020
Temperature: 14.0°C (57°F)
Dewpoint: 12.0°C (54°F) [RH = 88%]
Pressure (altimeter): 30.35 inches Hg (1028.0 mb)
Winds: from the W (270 degrees) at 7 MPH (6 knots; 3.1 m/s)
Visibility: 6 or more miles (10+ km)
Ceiling: at least 12,000 feet AGL
Clouds: scattered clouds at 2400 feet AGL
scattered clouds at 8000 feet AGL
Weather: no significant weather observed at this time

METAR text: HAAB 050200Z 26006KT 9999 SCT024 SCT080 14/12 Q1027
Conditions at: HAAB (ADDIS ABABA/BOLE, ET) observed 0200 UTC 05 June 2020
Temperature: 14.0°C (57°F)
Dewpoint: 12.0°C (54°F) [RH = 88%]
Pressure (altimeter): 30.32 inches Hg (1027.0 mb)
Winds: from the W (260 degrees) at 7 MPH (6 knots; 3.1 m/s)
Visibility: 6 or more miles (10+ km)
Ceiling: at least 12,000 feet AGL
Clouds: scattered clouds at 2400 feet AGL
scattered clouds at 8000 feet AGL
Weather: no significant weather observed at this time

METAR text: HAAB 050000Z 25007KT 9000 SCT024 BKN080 14/13 Q1027
Conditions at: HAAB (ADDIS ABABA/BOLE, ET) observed 0000 UTC 05 June 2020
Temperature: 14.0°C (57°F)
Dewpoint: 13.0°C (55°F) [RH = 94%]
Pressure (altimeter): 30.32 inches Hg (1027.0 mb)
Winds: from the WSW (250 degrees) at 8 MPH (7 knots; 3.6 m/s)
Visibility: 6 miles ( 9 km)
Ceiling: 8000 feet AGL
Clouds: scattered clouds at 2400 feet AGL
broken clouds at 8000 feet AGL
Weather: no significant weather observed at this time

METAR text: HAAB 042300Z 28007KT 9000 SCT024 SCT080 15/12 Q1027
Conditions at: HAAB (ADDIS ABABA/BOLE, ET) observed 2300 UTC 04 June 2020
Temperature: 15.0°C (59°F)
Dewpoint: 12.0°C (54°F) [RH = 82%]
Pressure (altimeter): 30.32 inches Hg (1027.0 mb)
Winds: from the W (280 degrees) at 8 MPH (7 knots; 3.6 m/s)
Visibility: 6 miles ( 9 km)
Ceiling: at least 12,000 feet AGL
Clouds: scattered clouds at 2400 feet AGL
scattered clouds at 8000 feet AGL
Weather: no significant weather observed at this time

METAR text: HAAB 042200Z 30003KT 9000 BKN024 BKN080 15/13 Q1027
Conditions at: HAAB (ADDIS ABABA/BOLE, ET) observed 2200 UTC 04 June 2020
Temperature: 15.0°C (59°F)
Dewpoint: 13.0°C (55°F) [RH = 88%]
Pressure (altimeter): 30.32 inches Hg (1027.0 mb)
Winds: from the WNW (300 degrees) at 3 MPH (3 knots; 1.5 m/s)
Visibility: 6 miles ( 9 km)
Ceiling: 2400 feet AGL
Clouds: broken clouds at 2400 feet AGL
broken clouds at 8000 feet AGL
Weather: no significant weather observed at this time

METAR text: HAAB 042100Z 31010KT 9000 BKN024 BKN080 15/13 Q1028
Conditions at: HAAB (ADDIS ABABA/BOLE, ET) observed 2100 UTC 04 June 2020
Temperature: 15.0°C (59°F)
Dewpoint: 13.0°C (55°F) [RH = 88%]
Pressure (altimeter): 30.35 inches Hg (1028.0 mb)
Winds: from the NW (310 degrees) at 12 MPH (10 knots; 5.1 m/s)
Visibility: 6 miles ( 9 km)
Ceiling: 2400 feet AGL
Clouds: broken clouds at 2400 feet AGL
broken clouds at 8000 feet AGL
Weather: no significant weather observed at this time

METAR text: HAAB 042000Z 23002KT 9000 -DR BKN024 BKN080 15/14 Q1028
Conditions at: HAAB (ADDIS ABABA/BOLE, ET) observed 2000 UTC 04 June 2020
Temperature: 15.0°C (59°F)
Dewpoint: 14.0°C (57°F) [RH = 94%]
Pressure (altimeter): 30.35 inches Hg (1028.0 mb)
Winds: from the SW (230 degrees) at 2 MPH (2 knots; 1.0 m/s)
Visibility: 6 miles ( 9 km)
Ceiling: 2400 feet AGL
Clouds: broken clouds at 2400 feet AGL
broken clouds at 8000 feet AGL
Weather: -DR  (unknown weather)

METAR text: HAAB 041900Z 36006KT 9000 -RA BKN024 BKN080 15/13 Q1028
Conditions at: HAAB (ADDIS ABABA/BOLE, ET) observed 1900 UTC 04 June 2020
Temperature: 15.0°C (59°F)
Dewpoint: 13.0°C (55°F) [RH = 88%]
Pressure (altimeter): 30.35 inches Hg (1028.0 mb)
Winds: from the N (360 degrees) at 7 MPH (6 knots; 3.1 m/s)
Visibility: 6 miles ( 9 km)
Ceiling: 2400 feet AGL
Clouds: broken clouds at 2400 feet AGL
broken clouds at 8000 feet AGL
Weather: -RA  (light rain)

METAR text: HAAB 041500Z 03006KT 9000 15RA FEW024 BKN025 SCT080 20/09 Q1024
Conditions at: HAAB (ADDIS ABABA/BOLE, ET) observed 1500 UTC 04 June 2020
Temperature: 20.0°C (68°F)
Dewpoint: 9.0°C (48°F) [RH = 49%]
Pressure (altimeter): 30.24 inches Hg (1024.0 mb)
Winds: from the NNE (30 degrees) at 7 MPH (6 knots; 3.1 m/s)
Visibility: 6 miles ( 9 km)
Ceiling: 2500 feet AGL
Clouds: few clouds at 2400 feet AGL
broken clouds at 2500 feet AGL
scattered clouds at 8000 feet AGL
Weather: RA  (moderate rain)

METAR text: HAAB 041300Z 34006KT 9999 BKN025 23/10 Q1023
Conditions at: HAAB (ADDIS ABABA/BOLE, ET) observed 1300 UTC 04 June 2020
Temperature: 23.0°C (73°F)
Dewpoint: 10.0°C (50°F) [RH = 44%]
Pressure (altimeter): 30.21 inches Hg (1023.0 mb)
Winds: from the NNW (340 degrees) at 7 MPH (6 knots; 3.1 m/s)
Visibility: 6 or more miles (10+ km)
Ceiling: 2500 feet AGL
Clouds: broken clouds at 2500 feet AGL
Weather: no significant weather observed at this time

METAR text: HAAB 040700Z 18006KT 9999 BKN025 18/12 Q1028
Conditions at: HAAB (ADDIS ABABA/BOLE, ET) observed 0700 UTC 04 June 2020
Temperature: 18.0°C (64°F)
Dewpoint: 12.0°C (54°F) [RH = 68%]
Pressure (altimeter): 30.35 inches Hg (1028.0 mb)
Winds: from the S (180 degrees) at 7 MPH (6 knots; 3.1 m/s)
Visibility: 6 or more miles (10+ km)
Ceiling: 2500 feet AGL
Clouds: broken clouds at 2500 feet AGL
Weather: no significant weather observed at this time

METAR text: HAAB 040600Z 18006KT 9999 BKN025 17/12 Q1028
Conditions at: HAAB (ADDIS ABABA/BOLE, ET) observed 0600 UTC 04 June 2020
Temperature: 17.0°C (63°F)
Dewpoint: 12.0°C (54°F) [RH = 72%]
Pressure (altimeter): 30.35 inches Hg (1028.0 mb)
Winds: from the S (180 degrees) at 7 MPH (6 knots; 3.1 m/s)
Visibility: 6 or more miles (10+ km)
Ceiling: 2500 feet AGL
Clouds: broken clouds at 2500 feet AGL
Weather: no significant weather observed at this time

METAR text: HAAB 040400Z 32004KT 9999 FEW025 13/10 Q1027
Conditions at: HAAB (ADDIS ABABA/BOLE, ET) observed 0400 UTC 04 June 2020
Temperature: 13.0°C (55°F)
Dewpoint: 10.0°C (50°F) [RH = 82%]
Pressure (altimeter): 30.32 inches Hg (1027.0 mb)
Winds: from the NW (320 degrees) at 5 MPH (4 knots; 2.1 m/s)
Visibility: 6 or more miles (10+ km)
Ceiling: at least 12,000 feet AGL
Clouds: few clouds at 2500 feet AGL
Weather: no significant weather observed at this time

METAR text: HAAB 040000KT 30004KT 9999 FEW025 13/10 Q1026
Conditions at: HAAB (ADDIS ABABA/BOLE, ET) observed 0012 UTC 04 June 2020
Temperature: 13.0°C (55°F)
Dewpoint: 10.0°C (50°F) [RH = 82%]
Pressure (altimeter): missing
Winds: missing
Visibility: 6 or more miles (10+ km)
Ceiling: at least 12,000 feet AGL
Clouds: few clouds at 2500 feet AGL
Weather: no significant weather observed at this time

METAR text: HAAB 040000KT 30004KT 9999 FEW025 13/10 Q1026
Conditions at: HAAB (ADDIS ABABA/BOLE, ET) observed 0010 UTC 04 June 2020
Temperature: 13.0°C (55°F)
Dewpoint: 10.0°C (50°F) [RH = 82%]
Pressure (altimeter): missing
Winds: missing
Visibility: 6 or more miles (10+ km)
Ceiling: at least 12,000 feet AGL
Clouds: few clouds at 2500 feet AGL
Weather: no significant weather observed at this time

METAR text: HAAB 032300Z 29004KT 9999 SCT025 13/10 Q1026-005
Conditions at: HAAB (ADDIS ABABA/BOLE, ET) observed 2300 UTC 03 June 2020
Temperature: 13.0°C (55°F)
Dewpoint: 10.0°C (50°F) [RH = 82%]
Pressure (altimeter): missing
Winds: from the WNW (290 degrees) at 5 MPH (4 knots; 2.1 m/s)
Visibility: 6 or more miles (10+ km)
Ceiling: at least 12,000 feet AGL
Clouds: scattered clouds at 2500 feet AGL
Weather: no significant weather observed at this time

METAR text: HAAB 031900Z 03002KT 9999 SCT025 15/11 Q1026
Conditions at: HAAB (ADDIS ABABA/BOLE, ET) observed 1900 UTC 03 June 2020
Temperature: 15.0°C (59°F)
Dewpoint: 11.0°C (52°F) [RH = 77%]
Pressure (altimeter): 30.30 inches Hg (1026.0 mb)
Winds: from the NNE (30 degrees) at 2 MPH (2 knots; 1.0 m/s)
Visibility: 6 or more miles (10+ km)
Ceiling: at least 12,000 feet AGL
Clouds: scattered clouds at 2500 feet AGL
Weather: no significant weather observed at this time

METAR text: HAAB 031800Z 31010KT 9999 BKN025 17/12 Q1026
Conditions at: HAAB (ADDIS ABABA/BOLE, ET) observed 1800 UTC 03 June 2020
Temperature: 17.0°C (63°F)
Dewpoint: 12.0°C (54°F) [RH = 72%]
Pressure (altimeter): 30.30 inches Hg (1026.0 mb)
Winds: from the NW (310 degrees) at 12 MPH (10 knots; 5.1 m/s)
Visibility: 6 or more miles (10+ km)
Ceiling: 2500 feet AGL
Clouds: broken clouds at 2500 feet AGL
Weather: no significant weather observed at this time

METAR text: HAAB 031600Z 12010KT 9999 BKN025CB 18/11 Q1025
Conditions at: HAAB (ADDIS ABABA/BOLE, ET) observed 1600 UTC 03 June 2020
Temperature: 18.0°C (64°F)
Dewpoint: 11.0°C (52°F) [RH = 64%]
Pressure (altimeter): 30.27 inches Hg (1025.0 mb)
Winds: from the ESE (120 degrees) at 12 MPH (10 knots; 5.1 m/s)
Visibility: 6 or more miles (10+ km)
Ceiling: 2500 feet AGL
Clouds: broken clouds at 2500 feet AGL
Weather: no significant weather observed at this time

Forecast for: HAAB (ADDIS ABABA/BOLE, ET)
Text: TAF HAAB 042130Z 0500/0606 22002KT 9999 BKN025 BKN070
Forecast period: 0000 to 1600 UTC 05 June 2020
Forecast type: FROM: standard forecast or significant change
Winds: from the SW (220 degrees) at 2 MPH (2 knots; 1.0 m/s)
Visibility: 6 or more miles 10+ km)
Ceiling: 2500 feet AGL
Clouds: broken clouds at 2500 feet AGL
broken clouds at 7000 feet AGL
Weather: no significant weather forecast for this period
Text: BECMG 0516/0519 8000M -RA
Forecast period: 1600 UTC 05 June 2020 to 0600 UTC 06 June 2020
Forecast type: BECOMING: Conditions expected to become as follows by 1900 UTC 05 June 2020
Winds: from the SW (220 degrees) at 2 MPH (2 knots; 1.0 m/s)
Visibility: 5 miles (8 km)
Ceiling: 2500 feet AGL
Clouds: broken clouds at 2500 feet AGL
broken clouds at 7000 feet AGL
Weather: -RA  (light rain)